Time;durP1;ratioP1;P1;durP2;ratioP2;P2;SDS_P1;SDS_P2;PMS_P1;PMS_P2;Temp;Humidity;BMP_temperature;BMP_pressure;BME280_temperature;BME280_humidity;BME280_pressure;Samples;Min_cycle;Max_cycle;Signal;HPM_P1;HPM_P2
2023/03/13 00:01:47;;;;;;;;;;;6.10;70.60;;;;;;5012543;28;88764;-38
2023/03/13 00:04:13;;;;;;;;;;;6.10;70.70;;;;;;5019004;28;89447;-37
2023/03/13 00:06:39;;;;;;;;;;;6.10;70.60;;;;;;5018607;28;87880;-38
2023/03/13 00:09:07;;;;;;;;;;;6.00;70.60;;;;;;5004099;28;88643;-38
2023/03/13 00:11:32;;;;;;;;;;;6.10;70.60;;;;;;5018222;28;89360;-38
2023/03/13 00:14:00;;;;;;;;;;;6.10;70.60;;;;;;5018458;28;86965;-37
2023/03/13 00:16:26;;;;;;;;;;;6.10;70.40;;;;;;5020826;28;89254;-37
2023/03/13 00:18:52;;;;;;;;;;;6.10;70.60;;;;;;5016460;28;86445;-37
2023/03/13 00:21:19;;;;;;;;;;;6.10;70.50;;;;;;5019165;28;87887;-37
2023/03/13 00:23:45;;;;;;;;;;;6.00;70.40;;;;;;5004583;28;87641;-38
2023/03/13 00:26:11;;;;;;;;;;;6.00;70.50;;;;;;5009843;28;88213;-37
2023/03/13 00:28:37;;;;;;;;;;;6.00;70.50;;;;;;5003371;28;89801;-37
2023/03/13 00:31:04;;;;;;;;;;;6.00;70.50;;;;;;5003739;28;88132;-38
2023/03/13 00:33:30;;;;;;;;;;;6.00;70.50;;;;;;5019822;28;88417;-37
2023/03/13 00:35:57;;;;;;;;;;;6.00;70.50;;;;;;5020121;28;87439;-37
2023/03/13 00:38:22;;;;;;;;;;;6.00;70.50;;;;;;5018245;28;89533;-37
2023/03/13 00:40:48;;;;;;;;;;;5.90;70.10;;;;;;5008725;28;87311;-37
2023/03/13 00:43:13;;;;;;;;;;;5.90;70.40;;;;;;5019340;28;89021;-38
2023/03/13 00:45:39;;;;;;;;;;;5.90;70.40;;;;;;5017894;28;87172;-38
2023/03/13 00:48:04;;;;;;;;;;;5.90;70.50;;;;;;5018286;28;88690;-37
2023/03/13 00:50:30;;;;;;;;;;;5.90;70.50;;;;;;5015864;28;90730;-38
2023/03/13 00:52:55;;;;;;;;;;;5.90;70.60;;;;;;5018177;28;87286;-37
2023/03/13 00:55:21;;;;;;;;;;;5.90;70.50;;;;;;5015947;28;88989;-38
2023/03/13 00:57:46;;;;;;;;;;;5.90;70.50;;;;;;5022789;28;89364;-38
2023/03/13 01:00:12;;;;;;;;;;;5.90;70.60;;;;;;5018269;28;87251;-37
2023/03/13 01:02:41;;;;;;;;;;;5.80;70.30;;;;;;5002049;28;88026;-37
2023/03/13 01:05:07;;;;;;;;;;;5.80;70.50;;;;;;5015852;28;87155;-37
2023/03/13 01:07:33;;;;;;;;;;;5.80;70.50;;;;;;5017643;28;89203;-37
2023/03/13 01:09:58;;;;;;;;;;;5.80;70.40;;;;;;5010294;28;89268;-37
2023/03/13 01:12:24;;;;;;;;;;;5.80;70.40;;;;;;5003196;28;87159;-37
2023/03/13 01:14:49;;;;;;;;;;;5.80;70.50;;;;;;5013630;28;88661;-37
2023/03/13 01:17:15;;;;;;;;;;;5.80;70.30;;;;;;5002696;28;89209;-37
2023/03/13 01:19:40;;;;;;;;;;;5.70;70.30;;;;;;5005665;28;87107;-38
2023/03/13 01:22:10;;;;;;;;;;;5.70;70.50;;;;;;5002522;28;89579;-37
2023/03/13 01:24:35;;;;;;;;;;;5.70;70.40;;;;;;5002721;28;87253;-38
2023/03/13 01:27:01;;;;;;;;;;;5.70;70.50;;;;;;5002675;28;87521;-37
2023/03/13 01:29:26;;;;;;;;;;;5.70;70.50;;;;;;5002247;28;88713;-37
2023/03/13 01:31:51;;;;;;;;;;;5.70;70.50;;;;;;5014018;28;86522;-37
2023/03/13 01:34:17;;;;;;;;;;;5.70;70.30;;;;;;5007325;28;88444;-37
2023/03/13 01:36:43;;;;;;;;;;;5.60;70.40;;;;;;5002298;28;89599;-38
2023/03/13 01:39:08;;;;;;;;;;;5.60;70.30;;;;;;5002074;28;88843;-37
2023/03/13 01:41:34;;;;;;;;;;;5.60;70.50;;;;;;5019256;28;89804;-38
2023/03/13 01:43:59;;;;;;;;;;;5.60;70.40;;;;;;5017990;28;87839;-37
2023/03/13 01:46:26;;;;;;;;;;;5.60;70.40;;;;;;5008393;28;88832;-38
2023/03/13 01:48:52;;;;;;;;;;;5.60;70.50;;;;;;5002142;28;89954;-37
2023/03/13 01:51:23;;;;;;;;;;;5.60;70.40;;;;;;5002601;28;87197;-38
2023/03/13 01:53:53;;;;;;;;;;;5.60;70.50;;;;;;5011891;28;87389;-37
2023/03/13 01:56:20;;;;;;;;;;;5.60;70.50;;;;;;5019757;28;89149;-36
2023/03/13 01:58:48;;;;;;;;;;;5.50;70.40;;;;;;5002335;28;88145;-37
2023/03/13 02:01:14;;;;;;;;;;;5.50;70.20;;;;;;5002386;28;87362;-38
2023/03/13 02:03:39;;;;;;;;;;;5.50;70.40;;;;;;5004364;28;88967;-37
2023/03/13 02:06:06;;;;;;;;;;;5.50;70.40;;;;;;5002181;28;89890;-37
2023/03/13 02:08:34;;;;;;;;;;;5.50;71.00;;;;;;5002160;28;90138;-37
2023/03/13 02:11:28;;;;;;;;;;;5.50;70.40;;;;;;5001853;28;87208;-37
2023/03/13 02:13:54;;;;;;;;;;;5.40;70.30;;;;;;5009777;28;88028;-37
2023/03/13 02:16:20;;;;;;;;;;;5.40;70.40;;;;;;5005314;28;90143;-37
2023/03/13 02:18:46;;;;;;;;;;;5.50;70.40;;;;;;5005690;28;86980;-38
2023/03/13 02:21:15;;;;;;;;;;;5.40;70.20;;;;;;5006176;28;88649;-37
2023/03/13 02:23:48;;;;;;;;;;;5.40;70.20;;;;;;5005337;28;89549;-37
2023/03/13 02:26:13;;;;;;;;;;;5.40;70.20;;;;;;5024099;28;87184;-37
2023/03/13 02:28:39;;;;;;;;;;;5.40;70.40;;;;;;5017619;28;90705;-37
2023/03/13 02:31:04;;;;;;;;;;;5.40;70.40;;;;;;5020588;28;87189;-37
2023/03/13 02:33:33;;;;;;;;;;;5.30;70.40;;;;;;5022726;28;89027;-37
2023/03/13 02:35:59;;;;;;;;;;;5.30;70.30;;;;;;5020738;28;89823;-37
2023/03/13 02:38:26;;;;;;;;;;;5.30;70.20;;;;;;5019373;28;87249;-37
2023/03/13 02:40:52;;;;;;;;;;;5.30;70.20;;;;;;5018728;28;89108;-37
2023/03/13 02:43:23;;;;;;;;;;;5.30;70.10;;;;;;5005200;28;89743;-37
2023/03/13 02:46:02;;;;;;;;;;;5.30;70.10;;;;;;5019856;28;86636;-37
2023/03/13 02:48:30;;;;;;;;;;;5.30;70.10;;;;;;5007468;28;88061;-37
2023/03/13 02:50:56;;;;;;;;;;;5.20;70.10;;;;;;5004955;28;87174;-37
2023/03/13 02:53:21;;;;;;;;;;;5.20;70.10;;;;;;5019627;28;89023;-37
2023/03/13 02:55:47;;;;;;;;;;;5.20;70.20;;;;;;5020744;28;89663;-37
2023/03/13 02:58:12;;;;;;;;;;;5.20;70.20;;;;;;5022892;28;87129;-37
2023/03/13 03:00:38;;;;;;;;;;;5.20;70.30;;;;;;5022555;28;89241;-37
2023/03/13 03:03:03;;;;;;;;;;;5.20;70.20;;;;;;5020271;28;89096;-37
2023/03/13 03:05:29;;;;;;;;;;;5.20;70.10;;;;;;5020080;28;87454;-37
2023/03/13 03:07:54;;;;;;;;;;;5.20;70.20;;;;;;5007464;28;88700;-38
2023/03/13 03:10:20;;;;;;;;;;;5.20;70.10;;;;;;5020753;28;86583;-37
2023/03/13 03:12:45;;;;;;;;;;;5.20;70.00;;;;;;5020102;28;87167;-37
2023/03/13 03:15:11;;;;;;;;;;;5.10;70.10;;;;;;5020310;28;89403;-37
2023/03/13 03:17:37;;;;;;;;;;;5.10;70.20;;;;;;5004110;28;88134;-37
2023/03/13 03:20:07;;;;;;;;;;;5.10;70.10;;;;;;5004772;28;89474;-37
2023/03/13 03:22:33;;;;;;;;;;;5.10;70.00;;;;;;5004232;28;89301;-37
2023/03/13 03:24:59;;;;;;;;;;;5.10;70.20;;;;;;5003762;28;87153;-37
2023/03/13 03:27:24;;;;;;;;;;;5.10;70.30;;;;;;5004287;28;87715;-38
2023/03/13 03:29:50;;;;;;;;;;;5.00;70.20;;;;;;5006790;28;89667;-37
2023/03/13 03:32:15;;;;;;;;;;;5.00;70.20;;;;;;5004838;28;87281;-37
2023/03/13 03:34:40;;;;;;;;;;;5.00;70.20;;;;;;5004601;28;88652;-37
2023/03/13 03:37:06;;;;;;;;;;;5.00;70.10;;;;;;5004572;28;87157;-38
2023/03/13 03:39:31;;;;;;;;;;;5.00;70.20;;;;;;5004620;28;87767;-37
2023/03/13 03:41:57;;;;;;;;;;;5.00;70.20;;;;;;5002951;28;90501;-37
2023/03/13 03:44:23;;;;;;;;;;;5.00;70.00;;;;;;5016739;28;87150;-37
2023/03/13 03:46:48;;;;;;;;;;;5.00;70.10;;;;;;5019995;28;88976;-37
2023/03/13 03:49:13;;;;;;;;;;;4.90;70.00;;;;;;5019328;28;89454;-37
2023/03/13 03:51:39;;;;;;;;;;;4.90;70.20;;;;;;5010378;28;87277;-37
2023/03/13 03:54:04;;;;;;;;;;;4.90;70.20;;;;;;5003800;28;89307;-38
2023/03/13 03:56:30;;;;;;;;;;;4.90;70.10;;;;;;5004085;28;87203;-37
2023/03/13 03:58:55;;;;;;;;;;;4.90;69.90;;;;;;5004749;28;88716;-37
2023/03/13 04:01:21;;;;;;;;;;;4.90;70.00;;;;;;5003996;28;89749;-37
2023/03/13 04:03:47;;;;;;;;;;;4.90;70.10;;;;;;5004143;28;87232;-37
2023/03/13 04:06:13;;;;;;;;;;;4.80;70.00;;;;;;5007815;28;89029;-38
2023/03/13 04:08:38;;;;;;;;;;;4.80;70.10;;;;;;5018292;28;88071;-37
2023/03/13 04:11:04;;;;;;;;;;;4.80;70.10;;;;;;5013497;28;87157;-37
2023/03/13 04:13:29;;;;;;;;;;;4.80;70.10;;;;;;5018689;28;88674;-39
2023/03/13 04:15:55;;;;;;;;;;;4.80;69.90;;;;;;5003806;28;87155;-37
2023/03/13 04:18:20;;;;;;;;;;;4.80;70.00;;;;;;5019334;28;88873;-36
2023/03/13 04:20:46;;;;;;;;;;;4.80;70.00;;;;;;5017315;28;89650;-36
2023/03/13 04:23:11;;;;;;;;;;;4.80;70.00;;;;;;5004994;28;86484;-36
2023/03/13 04:25:37;;;;;;;;;;;4.70;70.00;;;;;;5004158;28;87082;-37
2023/03/13 04:28:02;;;;;;;;;;;4.80;70.00;;;;;;5003277;28;88048;-36
2023/03/13 04:30:28;;;;;;;;;;;4.70;70.00;;;;;;5002793;28;88242;-37
2023/03/13 04:32:53;;;;;;;;;;;4.70;69.90;;;;;;5006793;28;89734;-36
2023/03/13 04:35:19;;;;;;;;;;;4.70;69.80;;;;;;5023087;28;89951;-37
2023/03/13 04:37:44;;;;;;;;;;;4.70;70.00;;;;;;5022444;28;87864;-37
2023/03/13 04:40:11;;;;;;;;;;;4.70;69.80;;;;;;5002828;28;89862;-37
2023/03/13 04:42:38;;;;;;;;;;;4.70;70.00;;;;;;5003862;28;87814;-36
2023/03/13 04:45:04;;;;;;;;;;;4.70;69.80;;;;;;5003554;28;88406;-37
2023/03/13 04:47:29;;;;;;;;;;;4.70;69.90;;;;;;5003262;28;89153;-37
2023/03/13 04:49:55;;;;;;;;;;;4.60;69.70;;;;;;5020332;28;87253;-37
2023/03/13 04:52:21;;;;;;;;;;;4.60;69.90;;;;;;5019570;28;87423;-37
2023/03/13 04:54:46;;;;;;;;;;;4.60;69.80;;;;;;5017444;28;90684;-36
2023/03/13 04:57:12;;;;;;;;;;;4.60;69.80;;;;;;5021161;28;87097;-36
2023/03/13 04:59:37;;;;;;;;;;;4.60;69.90;;;;;;5019181;28;90002;-37
2023/03/13 05:02:02;;;;;;;;;;;4.60;69.70;;;;;;5003244;28;87344;-36
2023/03/13 05:04:28;;;;;;;;;;;4.60;69.80;;;;;;5005717;28;88229;-37
2023/03/13 05:06:53;;;;;;;;;;;4.50;69.80;;;;;;5002873;28;88039;-37
2023/03/13 05:09:19;;;;;;;;;;;4.50;69.90;;;;;;5003291;28;87277;-36
2023/03/13 05:11:44;;;;;;;;;;;4.50;69.90;;;;;;5003695;28;86645;-37
2023/03/13 05:14:10;;;;;;;;;;;4.40;69.80;;;;;;5002948;28;88148;-37
2023/03/13 05:16:37;;;;;;;;;;;4.40;70.00;;;;;;5005948;28;87174;-39
2023/03/13 05:19:03;;;;;;;;;;;4.40;69.90;;;;;;5001928;28;89483;-36
2023/03/13 05:21:28;;;;;;;;;;;4.40;70.10;;;;;;5002865;28;87250;-37
2023/03/13 05:23:54;;;;;;;;;;;4.40;69.90;;;;;;5002890;28;88809;-37
2023/03/13 05:26:19;;;;;;;;;;;4.40;70.40;;;;;;5018085;28;89767;-37
2023/03/13 05:28:45;;;;;;;;;;;4.30;69.80;;;;;;5002270;28;88012;-36
2023/03/13 05:31:10;;;;;;;;;;;4.30;70.00;;;;;;5010962;28;88775;-37
2023/03/13 05:33:36;;;;;;;;;;;4.40;69.80;;;;;;5018258;28;89099;-36
2023/03/13 05:36:01;;;;;;;;;;;4.40;69.80;;;;;;5020141;28;87329;-36
2023/03/13 05:38:27;;;;;;;;;;;4.40;69.80;;;;;;5019766;28;87886;-37
2023/03/13 05:40:52;;;;;;;;;;;4.30;69.70;;;;;;5018248;28;87188;-37
2023/03/13 05:43:18;;;;;;;;;;;4.30;69.60;;;;;;5018907;28;89852;-37
2023/03/13 05:45:43;;;;;;;;;;;4.30;69.70;;;;;;5002181;28;89415;-37
2023/03/13 05:48:09;;;;;;;;;;;4.20;69.70;;;;;;5002659;28;87387;-37
2023/03/13 05:50:34;;;;;;;;;;;4.20;69.80;;;;;;5002166;28;89305;-37
2023/03/13 05:53:00;;;;;;;;;;;4.20;70.00;;;;;;5001806;28;89486;-37
2023/03/13 05:55:26;;;;;;;;;;;4.30;70.00;;;;;;5002598;28;87163;-37
2023/03/13 05:57:51;;;;;;;;;;;4.20;69.70;;;;;;5015782;28;89954;-37
2023/03/13 06:00:18;;;;;;;;;;;4.30;69.80;;;;;;5005446;28;87856;-37
2023/03/13 06:02:43;;;;;;;;;;;4.20;69.70;;;;;;5018052;28;88232;-36
2023/03/13 06:05:09;;;;;;;;;;;4.20;69.70;;;;;;5015537;28;89451;-37
2023/03/13 06:07:35;;;;;;;;;;;4.20;69.90;;;;;;5009823;28;88106;-37
2023/03/13 06:10:01;;;;;;;;;;;4.20;69.70;;;;;;5002389;28;88480;-36
2023/03/13 06:12:26;;;;;;;;;;;4.20;69.70;;;;;;5005686;28;89900;-37
2023/03/13 06:14:52;;;;;;;;;;;4.20;70.00;;;;;;5017384;28;87172;-37
2023/03/13 06:17:17;;;;;;;;;;;4.20;69.80;;;;;;5018946;28;87421;-37
2023/03/13 06:19:43;;;;;;;;;;;4.20;69.80;;;;;;5018372;28;88053;-36
2023/03/13 06:22:08;;;;;;;;;;;4.20;69.70;;;;;;5021002;28;87257;-37
2023/03/13 06:24:34;;;;;;;;;;;4.20;69.70;;;;;;5017325;28;88888;-37
2023/03/13 06:26:59;;;;;;;;;;;4.20;69.70;;;;;;5017586;28;87206;-36
2023/03/13 06:29:25;;;;;;;;;;;4.20;69.70;;;;;;5001762;28;87777;-37
2023/03/13 06:31:50;;;;;;;;;;;4.20;69.60;;;;;;5018363;28;90259;-37
2023/03/13 06:34:16;;;;;;;;;;;4.20;69.80;;;;;;5015609;28;87236;-37
2023/03/13 06:36:42;;;;;;;;;;;4.20;69.70;;;;;;5018762;28;88801;-37
2023/03/13 06:39:08;;;;;;;;;;;4.20;69.70;;;;;;5019122;28;88082;-37
2023/03/13 06:41:33;;;;;;;;;;;4.10;69.70;;;;;;5002166;28;87892;-37
2023/03/13 06:43:59;;;;;;;;;;;4.10;70.00;;;;;;5004429;28;89045;-37
2023/03/13 06:46:24;;;;;;;;;;;4.10;69.90;;;;;;5002274;28;87631;-37
2023/03/13 06:48:50;;;;;;;;;;;4.20;69.90;;;;;;5015122;28;88906;-37
2023/03/13 06:51:17;;;;;;;;;;;4.20;69.90;;;;;;5020242;28;89334;-37
2023/03/13 06:53:43;;;;;;;;;;;4.20;69.80;;;;;;5001755;28;87132;-37
2023/03/13 06:56:08;;;;;;;;;;;4.20;69.80;;;;;;5001107;28;89068;-36
2023/03/13 06:58:34;;;;;;;;;;;4.20;69.80;;;;;;5008882;28;89411;-37
2023/03/13 07:01:06;;;;;;;;;;;4.20;69.70;;;;;;5021695;28;87127;-36
2023/03/13 07:03:32;;;;;;;;;;;4.20;69.90;;;;;;5023372;28;87669;-37
2023/03/13 07:05:58;;;;;;;;;;;4.20;70.00;;;;;;5022052;28;87090;-37
2023/03/13 07:08:24;;;;;;;;;;;4.10;69.90;;;;;;5004910;28;88073;-36
2023/03/13 07:10:51;;;;;;;;;;;4.10;69.90;;;;;;5006428;28;88297;-36
2023/03/13 07:13:18;;;;;;;;;;;4.20;69.90;;;;;;5012943;28;87097;-36
2023/03/13 07:15:44;;;;;;;;;;;4.10;70.00;;;;;;5021141;28;88400;-37
2023/03/13 07:18:10;;;;;;;;;;;4.10;70.10;;;;;;5018511;28;88552;-37
2023/03/13 07:20:35;;;;;;;;;;;4.10;70.20;;;;;;5019721;28;88059;-37
2023/03/13 07:23:01;;;;;;;;;;;4.10;70.20;;;;;;5015472;28;89816;-36
2023/03/13 07:25:26;;;;;;;;;;;4.00;70.30;;;;;;5007165;28;89646;-37
2023/03/13 07:27:52;;;;;;;;;;;4.10;70.30;;;;;;5004541;28;87897;-36
2023/03/13 07:30:18;;;;;;;;;;;4.10;70.10;;;;;;5004201;28;89170;-37
2023/03/13 07:32:43;;;;;;;;;;;4.10;70.00;;;;;;5004936;28;87882;-37
2023/03/13 07:35:09;;;;;;;;;;;4.10;70.10;;;;;;5004194;28;88805;-36
2023/03/13 07:37:34;;;;;;;;;;;4.10;70.20;;;;;;5018494;28;88710;-36
2023/03/13 07:40:00;;;;;;;;;;;4.10;70.30;;;;;;5020619;28;87165;-36
2023/03/13 07:42:25;;;;;;;;;;;4.10;70.20;;;;;;5021991;28;88347;-37
2023/03/13 07:44:52;;;;;;;;;;;4.10;70.10;;;;;;5008874;28;88991;-36
2023/03/13 07:47:17;;;;;;;;;;;4.10;70.30;;;;;;5007268;28;87947;-37
2023/03/13 07:49:45;;;;;;;;;;;4.10;70.30;;;;;;5003649;28;90029;-37
2023/03/13 07:52:10;;;;;;;;;;;4.10;70.40;;;;;;5017931;28;87861;-37
2023/03/13 07:54:36;;;;;;;;;;;4.10;70.40;;;;;;5004215;28;89569;-37
2023/03/13 07:57:02;;;;;;;;;;;4.00;70.30;;;;;;5005659;28;88531;-36
2023/03/13 07:59:27;;;;;;;;;;;4.10;70.50;;;;;;5020529;28;87278;-37
2023/03/13 08:01:53;;;;;;;;;;;4.10;70.50;;;;;;5022718;28;88629;-37
2023/03/13 08:04:18;;;;;;;;;;;4.10;70.60;;;;;;5021786;28;89909;-37
2023/03/13 08:06:44;;;;;;;;;;;4.00;70.60;;;;;;5002857;28;87829;-37
2023/03/13 08:09:09;;;;;;;;;;;4.10;70.70;;;;;;5006202;28;88626;-37
2023/03/13 08:11:36;;;;;;;;;;;4.10;70.60;;;;;;5018331;28;87682;-37
2023/03/13 08:14:02;;;;;;;;;;;4.10;70.70;;;;;;5021165;28;89000;-37
2023/03/13 08:16:29;;;;;;;;;;;4.10;70.70;;;;;;5015359;28;87888;-36
2023/03/13 08:18:55;;;;;;;;;;;4.00;70.70;;;;;;5005324;28;87245;-37
2023/03/13 08:21:23;;;;;;;;;;;4.00;70.70;;;;;;5003676;28;89228;-37
2023/03/13 08:23:51;;;;;;;;;;;4.00;70.80;;;;;;5003252;28;89306;-37
2023/03/13 08:26:18;;;;;;;;;;;4.00;70.70;;;;;;5004324;28;86507;-37
2023/03/13 08:28:44;;;;;;;;;;;4.00;70.70;;;;;;5003503;28;87879;-37
2023/03/13 08:31:10;;;;;;;;;;;4.00;70.90;;;;;;5016270;28;89019;-37
2023/03/13 08:33:36;;;;;;;;;;;4.10;70.70;;;;;;5018414;28;88514;-37
2023/03/13 08:36:17;;;;;;;;;;;4.00;70.70;;;;;;5004364;28;89995;-36
2023/03/13 08:38:44;;;;;;;;;;;4.10;70.90;;;;;;5019158;28;87414;-37
2023/03/13 08:41:13;;;;;;;;;;;4.10;70.90;;;;;;5019516;28;88927;-37
2023/03/13 08:43:39;;;;;;;;;;;4.10;70.90;;;;;;5018568;28;91535;-37
2023/03/13 08:46:04;;;;;;;;;;;4.10;70.90;;;;;;5019159;28;87267;-37
2023/03/13 08:48:30;;;;;;;;;;;4.10;71.00;;;;;;5018988;28;88748;-36
2023/03/13 08:50:59;;;;;;;;;;;4.00;70.90;;;;;;5018684;28;88548;-37
2023/03/13 08:53:25;;;;;;;;;;;4.00;71.00;;;;;;5021801;28;87143;-36
2023/03/13 08:55:53;;;;;;;;;;;4.00;71.10;;;;;;5018248;28;89499;-36
2023/03/13 08:58:19;;;;;;;;;;;4.00;71.10;;;;;;5020684;28;88151;-37
2023/03/13 09:00:44;;;;;;;;;;;4.00;71.10;;;;;;5005211;28;89665;-37
2023/03/13 09:03:10;;;;;;;;;;;4.00;71.20;;;;;;5002906;28;89635;-36
2023/03/13 09:05:38;;;;;;;;;;;4.10;71.10;;;;;;5003148;28;87181;-37
2023/03/13 09:08:03;;;;;;;;;;;4.10;71.10;;;;;;5015708;28;90710;-37
2023/03/13 09:10:31;;;;;;;;;;;4.10;71.20;;;;;;5010305;28;88012;-36
2023/03/13 09:12:57;;;;;;;;;;;4.10;71.10;;;;;;5006272;28;87596;-37
2023/03/13 09:15:22;;;;;;;;;;;4.10;71.20;;;;;;5004949;28;88802;-37
2023/03/13 09:17:48;;;;;;;;;;;4.10;71.40;;;;;;5002670;28;87262;-37
2023/03/13 09:20:13;;;;;;;;;;;4.10;71.40;;;;;;5002910;28;88743;-37
2023/03/13 09:22:39;;;;;;;;;;;4.10;71.30;;;;;;5001025;28;90198;-36
2023/03/13 09:25:04;;;;;;;;;;;4.10;71.30;;;;;;5012082;28;87663;-36
2023/03/13 09:27:30;;;;;;;;;;;4.10;71.40;;;;;;5018810;28;87423;-37
2023/03/13 09:29:55;;;;;;;;;;;4.10;71.70;;;;;;5002430;28;88792;-37
2023/03/13 09:32:21;;;;;;;;;;;4.10;71.50;;;;;;5018557;28;87210;-37
2023/03/13 09:34:46;;;;;;;;;;;4.10;71.60;;;;;;5018591;28;88758;-36
2023/03/13 09:37:12;;;;;;;;;;;4.00;71.80;;;;;;5013508;28;87049;-37
2023/03/13 09:39:37;;;;;;;;;;;4.10;71.80;;;;;;5013317;28;88991;-37
2023/03/13 09:42:09;;;;;;;;;;;4.10;71.60;;;;;;5018661;28;89336;-36
2023/03/13 09:44:53;;;;;;;;;;;4.20;71.70;;;;;;5019403;28;87080;-37
2023/03/13 09:47:28;;;;;;;;;;;4.10;71.60;;;;;;5020349;28;87937;-36
2023/03/13 09:50:06;;;;;;;;;;;4.20;71.60;;;;;;5020258;28;89450;-36
2023/03/13 09:52:39;;;;;;;;;;;4.20;71.70;;;;;;5017912;28;87155;-36
2023/03/13 09:55:21;;;;;;;;;;;4.10;71.80;;;;;;5007952;28;88814;-37
2023/03/13 09:58:16;;;;;;;;;;;4.10;71.80;;;;;;5021471;28;88322;-36
2023/03/13 10:00:45;;;;;;;;;;;4.20;71.80;;;;;;4993343;28;87409;-37
2023/03/13 10:03:10;;;;;;;;;;;4.20;71.80;;;;;;5002261;28;89665;-37
2023/03/13 10:05:43;;;;;;;;;;;4.10;72.00;;;;;;5017309;28;87002;-37
2023/03/13 10:08:11;;;;;;;;;;;4.20;71.90;;;;;;5002388;28;88176;-37
2023/03/13 10:10:41;;;;;;;;;;;4.20;71.90;;;;;;5005309;28;88078;-38
2023/03/13 10:13:18;;;;;;;;;;;4.20;71.80;;;;;;5001674;28;88110;-37
2023/03/13 10:15:47;;;;;;;;;;;4.30;71.80;;;;;;5004384;28;90762;-37
2023/03/13 10:18:16;;;;;;;;;;;4.30;71.80;;;;;;5017166;28;89353;-38
2023/03/13 10:20:42;;;;;;;;;;;4.30;71.80;;;;;;5018786;28;87120;-37
2023/03/13 10:23:31;;;;;;;;;;;4.30;71.70;;;;;;5001922;28;88355;-37
2023/03/13 10:25:56;;;;;;;;;;;4.40;71.70;;;;;;5011371;28;87224;-37
2023/03/13 10:28:22;;;;;;;;;;;4.40;71.60;;;;;;5014249;28;87508;-37
2023/03/13 10:30:51;;;;;;;;;;;4.40;71.50;;;;;;5012800;28;87767;-37
2023/03/13 10:33:21;;;;;;;;;;;4.40;71.60;;;;;;5020100;28;87584;-37
2023/03/13 10:35:57;;;;;;;;;;;4.40;71.60;;;;;;5020365;28;88981;-37
2023/03/13 10:38:23;;;;;;;;;;;4.40;71.50;;;;;;5022957;28;90446;-38
2023/03/13 10:40:59;;;;;;;;;;;4.50;71.40;;;;;;5023282;28;87729;-37
2023/03/13 10:43:25;;;;;;;;;;;4.40;71.40;;;;;;5025389;28;88716;-37
2023/03/13 10:45:51;;;;;;;;;;;4.40;71.40;;;;;;5019413;28;87186;-38
2023/03/13 10:48:21;;;;;;;;;;;4.40;71.50;;;;;;5011968;28;88597;-37
2023/03/13 10:50:47;;;;;;;;;;;4.50;71.40;;;;;;5022620;28;87836;-38
2023/03/13 10:53:24;;;;;;;;;;;4.50;71.40;;;;;;5020860;28;87122;-37
2023/03/13 10:55:53;;;;;;;;;;;4.50;71.40;;;;;;5022319;28;89039;-37
2023/03/13 10:58:39;;;;;;;;;;;4.50;71.60;;;;;;5018733;28;87943;-38
2023/03/13 11:01:15;;;;;;;;;;;4.50;71.60;;;;;;5019663;28;87324;-37
2023/03/13 11:03:41;;;;;;;;;;;4.50;71.40;;;;;;5004328;28;89233;-37
2023/03/13 11:06:19;;;;;;;;;;;4.60;71.40;;;;;;5007652;28;89486;-37
2023/03/13 11:08:44;;;;;;;;;;;4.60;71.50;;;;;;5005240;28;88789;-38
2023/03/13 11:11:18;;;;;;;;;;;4.50;71.60;;;;;;5004733;28;87875;-37
2023/03/13 11:13:43;;;;;;;;;;;4.60;71.60;;;;;;5004867;28;87134;-37
2023/03/13 11:16:09;;;;;;;;;;;4.50;71.70;;;;;;5004919;28;87795;-37
2023/03/13 11:19:00;;;;;;;;;;;4.50;71.80;;;;;;5011986;28;88063;-37
2023/03/13 11:21:34;;;;;;;;;;;4.60;71.40;;;;;;5005586;28;86476;-37
2023/03/13 11:24:06;;;;;;;;;;;4.70;71.30;;;;;;5005141;28;88521;-37
2023/03/13 11:26:34;;;;;;;;;;;4.70;71.20;;;;;;5020174;28;89944;-37
2023/03/13 11:29:13;;;;;;;;;;;4.70;71.20;;;;;;5003967;28;88322;-37
2023/03/13 11:31:45;;;;;;;;;;;4.80;71.20;;;;;;5007003;28;88284;-37
2023/03/13 11:34:27;;;;;;;;;;;4.80;71.10;;;;;;5020472;28;88277;-37
2023/03/13 11:36:52;;;;;;;;;;;4.80;71.20;;;;;;5021400;28;87194;-38
2023/03/13 11:39:23;;;;;;;;;;;4.80;71.20;;;;;;5010139;28;89447;-37
2023/03/13 11:42:06;;;;;;;;;;;4.80;71.10;;;;;;5004329;28;87827;-37
2023/03/13 11:44:35;;;;;;;;;;;4.90;71.00;;;;;;5017517;28;88716;-38
2023/03/13 11:47:03;;;;;;;;;;;4.90;71.00;;;;;;5010179;28;88454;-37
2023/03/13 11:49:47;;;;;;;;;;;4.90;71.00;;;;;;5011578;28;87253;-37
2023/03/13 11:52:31;;;;;;;;;;;4.90;71.00;;;;;;5003957;28;89379;-37
2023/03/13 11:55:08;;;;;;;;;;;4.90;70.90;;;;;;5007478;28;88764;-37
2023/03/13 11:57:39;;;;;;;;;;;4.90;71.00;;;;;;5017044;28;89881;-37
2023/03/13 12:00:16;;;;;;;;;;;5.00;71.10;;;;;;5003947;28;88252;-37
2023/03/13 12:02:46;;;;;;;;;;;5.00;71.00;;;;;;5003987;28;87248;-38
2023/03/13 12:05:14;;;;;;;;;;;5.00;71.10;;;;;;5017288;28;89239;-37
2023/03/13 12:07:52;;;;;;;;;;;5.00;70.90;;;;;;5019492;28;89651;-37
2023/03/13 12:10:29;;;;;;;;;;;5.00;70.90;;;;;;5009294;28;87198;-37
2023/03/13 12:12:55;;;;;;;;;;;5.00;70.90;;;;;;5021178;28;88683;-37
2023/03/13 12:15:22;;;;;;;;;;;5.10;70.90;;;;;;5003711;28;87962;-38
2023/03/13 12:17:57;;;;;;;;;;;5.10;70.90;;;;;;5004031;28;89006;-37
2023/03/13 12:20:31;;;;;;;;;;;5.10;70.80;;;;;;5013728;28;89610;-37
2023/03/13 12:23:15;;;;;;;;;;;5.10;70.90;;;;;;5005801;28;87244;-38
2023/03/13 12:25:44;;;;;;;;;;;5.20;70.70;;;;;;5003966;28;87348;-38
2023/03/13 12:28:23;;;;;;;;;;;5.20;70.80;;;;;;5003013;28;88152;-38
2023/03/13 12:31:04;;;;;;;;;;;5.20;70.80;;;;;;5003757;28;87068;-37
2023/03/13 12:33:45;;;;;;;;;;;5.20;70.60;;;;;;5018513;28;87933;-38
2023/03/13 12:36:25;;;;;;;;;;;5.20;70.70;;;;;;5021735;28;89330;-37
2023/03/13 12:39:13;;;;;;;;;;;5.20;70.50;;;;;;5019893;28;89163;-37
2023/03/13 12:41:42;;;;;;;;;;;5.30;70.80;;;;;;4993796;28;89466;-38
2023/03/13 12:44:17;;;;;;;;;;;5.30;70.60;;;;;;5003219;28;87196;-39
2023/03/13 12:46:43;;;;;;;;;;;5.30;70.60;;;;;;5002449;28;89023;-38
2023/03/13 12:49:28;;;;;;;;;;;5.30;70.70;;;;;;5007856;28;90100;-38
2023/03/13 12:51:56;;;;;;;;;;;5.40;70.80;;;;;;5003604;28;87127;-38
2023/03/13 12:54:27;;;;;;;;;;;5.40;70.80;;;;;;5003605;28;88734;-38
2023/03/13 12:56:53;;;;;;;;;;;5.40;70.70;;;;;;5002313;28;88704;-38
2023/03/13 12:59:21;;;;;;;;;;;5.40;70.70;;;;;;5021756;28;87232;-38
2023/03/13 13:01:49;;;;;;;;;;;5.40;70.70;;;;;;5002707;28;89723;-38
2023/03/13 13:04:17;;;;;;;;;;;5.40;70.70;;;;;;5016716;28;86533;-38
2023/03/13 13:06:58;;;;;;;;;;;5.40;70.70;;;;;;5021641;28;87276;-38
2023/03/13 13:09:26;;;;;;;;;;;5.50;70.70;;;;;;5019940;28;89589;-37
2023/03/13 13:11:54;;;;;;;;;;;5.50;70.80;;;;;;5015616;28;88166;-38
2023/03/13 13:14:19;;;;;;;;;;;5.50;70.70;;;;;;5014431;28;89806;-38
2023/03/13 13:16:54;;;;;;;;;;;5.50;70.70;;;;;;5013828;28;89628;-38
2023/03/13 13:19:23;;;;;;;;;;;5.50;70.70;;;;;;5012741;28;87676;-37
2023/03/13 13:22:07;;;;;;;;;;;5.60;70.60;;;;;;5005810;28;87904;-38
2023/03/13 13:24:40;;;;;;;;;;;5.60;70.60;;;;;;5016760;28;88449;-37
2023/03/13 13:27:25;;;;;;;;;;;5.60;70.60;;;;;;5015460;28;88694;-38
2023/03/13 13:29:52;;;;;;;;;;;5.60;70.60;;;;;;5019175;28;88000;-38
2023/03/13 13:32:27;;;;;;;;;;;5.70;70.60;;;;;;5017665;28;87234;-37
2023/03/13 13:34:54;;;;;;;;;;;5.70;70.60;;;;;;5002889;28;88861;-37
2023/03/13 13:37:19;;;;;;;;;;;5.70;70.60;;;;;;5002166;28;88147;-37
2023/03/13 13:39:49;;;;;;;;;;;5.70;70.60;;;;;;5002733;28;87151;-38
2023/03/13 13:42:30;;;;;;;;;;;5.80;70.50;;;;;;5004911;28;89151;-37
2023/03/13 13:44:56;;;;;;;;;;;5.80;70.50;;;;;;5002634;28;87272;-38
2023/03/13 13:47:24;;;;;;;;;;;5.90;70.60;;;;;;5002568;28;88885;-38
2023/03/13 13:49:56;;;;;;;;;;;5.80;70.40;;;;;;5017659;28;89051;-37
2023/03/13 13:52:35;;;;;;;;;;;5.90;70.50;;;;;;5017686;28;87736;-38
2023/03/13 13:55:02;;;;;;;;;;;5.90;70.40;;;;;;5017588;28;88777;-38
2023/03/13 13:57:31;;;;;;;;;;;5.90;70.40;;;;;;5017700;28;89442;-37
2023/03/13 14:00:15;;;;;;;;;;;6.00;70.40;;;;;;5018479;28;88023;-38
2023/03/13 14:02:54;;;;;;;;;;;6.00;70.40;;;;;;5011861;28;88039;-38
2023/03/13 14:05:25;;;;;;;;;;;6.10;70.50;;;;;;5019631;28;89585;-38
2023/03/13 14:07:56;;;;;;;;;;;6.10;70.30;;;;;;5013776;28;87347;-38
2023/03/13 14:10:25;;;;;;;;;;;6.10;70.30;;;;;;5005892;28;89107;-37
2023/03/13 14:12:52;;;;;;;;;;;6.20;70.50;;;;;;5006065;28;87131;-37
2023/03/13 14:15:36;;;;;;;;;;;6.20;70.40;;;;;;5005864;28;88104;-38
2023/03/13 14:18:10;;;;;;;;;;;6.20;70.40;;;;;;5018521;28;88420;-38
2023/03/13 14:20:37;;;;;;;;;;;6.30;70.60;;;;;;5021058;28;87251;-38
2023/03/13 14:23:07;;;;;;;;;;;6.30;70.40;;;;;;5016719;28;87251;-38
2023/03/13 14:25:58;;;;;;;;;;;6.40;70.30;;;;;;5005348;28;88910;-38
2023/03/13 14:28:28;;;;;;;;;;;6.40;70.30;;;;;;5019390;28;88900;-38
2023/03/13 14:30:55;;;;;;;;;;;6.40;70.40;;;;;;5021089;28;89274;-38
2023/03/13 14:33:20;;;;;;;;;;;6.40;70.60;;;;;;5015484;28;88029;-38
2023/03/13 14:35:47;;;;;;;;;;;6.40;70.30;;;;;;5005672;28;88731;-38
2023/03/13 14:38:19;;;;;;;;;;;6.50;70.60;;;;;;5005351;28;89137;-38